Time;durP1;ratioP1;P1;durP2;ratioP2;P2;SDS_P1;SDS_P2;PMS_P1;PMS_P2;Temp;Humidity;BMP_temperature;BMP_pressure;BME280_temperature;BME280_humidity;BME280_pressure;Samples;Min_cycle;Max_cycle;Signal;HPM_P1;HPM_P2
2023/05/06 00:01:44;;;;;;;11.10;5.20;;;;;;;;;;107105;1258;25271;-79
2023/05/06 00:04:11;;;;;;;14.20;5.10;;;;;;;;;;107351;1272;25261;-75
2023/05/06 00:06:38;;;;;;;12.30;5.40;;;;;;;;;;107180;1272;24230;-81
2023/05/06 00:09:06;;;;;;;12.10;5.20;;;;;;;;;;107226;1272;24200;-77
2023/05/06 00:11:32;;;;;;;12.00;5.50;;;;;;;;;;107298;1250;22518;-78
2023/05/06 00:13:59;;;;;;;12.20;5.50;;;;;;;;;;106905;1273;26474;-82
2023/05/06 00:16:29;;;;;;;10.80;5.40;;;;;;;;;;107209;1273;24195;-79
2023/05/06 00:18:56;;;;;;;14.00;6.00;;;;;;;;;;107132;1273;24314;-79
2023/05/06 00:21:22;;;;;;;13.00;5.70;;;;;;;;;;107167;1273;24243;-78
2023/05/06 00:23:49;;;;;;;15.30;5.90;;;;;;;;;;107152;1272;22637;-82
2023/05/06 00:26:19;;;;;;;14.60;6.20;;;;;;;;;;107183;1250;25796;-79
2023/05/06 00:28:46;;;;;;;12.90;5.30;;;;;;;;;;107209;1272;22560;-79
2023/05/06 00:31:12;;;;;;;11.60;6.10;;;;;;;;;;107156;1272;22480;-77
2023/05/06 00:33:40;;;;;;;12.70;6.00;;;;;;;;;;107224;1253;23489;-78
2023/05/06 00:36:07;;;;;;;13.40;6.10;;;;;;;;;;107151;1273;25457;-82
2023/05/06 00:38:34;;;;;;;11.60;5.50;;;;;;;;;;106941;1274;25478;-76
2023/05/06 00:41:02;;;;;;;15.30;6.20;;;;;;;;;;106926;1274;24364;-81
2023/05/06 00:43:31;;;;;;;11.60;6.00;;;;;;;;;;106962;1260;24243;-80
2023/05/06 00:45:58;;;;;;;14.90;6.50;;;;;;;;;;107161;1273;22521;-82
2023/05/06 00:48:25;;;;;;;13.80;5.80;;;;;;;;;;107157;1273;25389;-76
2023/05/06 00:50:52;;;;;;;12.60;5.60;;;;;;;;;;107170;1273;22556;-81
2023/05/06 00:53:22;;;;;;;12.20;5.30;;;;;;;;;;107101;1266;25400;-81
2023/05/06 00:55:50;;;;;;;13.50;5.80;;;;;;;;;;107117;1274;25276;-79
2023/05/06 00:58:18;;;;;;;10.90;5.00;;;;;;;;;;106901;1274;25536;-79
2023/05/06 01:00:44;;;;;;;13.00;5.60;;;;;;;;;;106942;1274;25303;-76
2023/05/06 01:03:11;;;;;;;18.50;6.10;;;;;;;;;;106922;1256;22508;-81
2023/05/06 01:06:02;;;;;;;14.60;6.00;;;;;;;;;;107085;1273;22539;-75
2023/05/06 01:08:31;;;;;;;11.90;5.50;;;;;;;;;;107089;1273;24219;-78
2023/05/06 01:11:02;;;;;;;13.60;6.00;;;;;;;;;;107203;1273;22936;-79
2023/05/06 01:13:45;;;;;;;14.50;6.00;;;;;;;;;;107110;1273;24053;-78
2023/05/06 01:16:14;;;;;;;12.00;5.70;;;;;;;;;;107144;1274;25380;-75
2023/05/06 01:18:42;;;;;;;13.00;5.90;;;;;;;;;;106940;1274;22521;-81
2023/05/06 01:21:11;;;;;;;17.70;6.70;;;;;;;;;;107136;1274;24222;-81
2023/05/06 01:23:51;;;;;;;11.70;6.00;;;;;;;;;;107184;1256;22570;-81
2023/05/06 01:26:18;;;;;;;13.00;6.40;;;;;;;;;;107130;1273;22597;-80
2023/05/06 01:28:44;;;;;;;13.80;5.80;;;;;;;;;;107149;1273;22518;-75
2023/05/06 01:31:12;;;;;;;13.00;6.40;;;;;;;;;;107186;1273;22730;-78
2023/05/06 01:33:50;;;;;;;13.90;5.80;;;;;;;;;;107122;1256;22601;-78
2023/05/06 01:36:33;;;;;;;11.70;5.70;;;;;;;;;;107093;1272;22643;-78
2023/05/06 01:39:08;;;;;;;10.80;5.70;;;;;;;;;;107042;1275;22773;-78
2023/05/06 01:41:37;;;;;;;13.10;5.60;;;;;;;;;;106976;1275;22520;-77
2023/05/06 01:44:06;;;;;;;12.30;5.50;;;;;;;;;;106922;1260;22632;-80
2023/05/06 01:46:34;;;;;;;12.30;6.00;;;;;;;;;;107195;1259;25463;-78
2023/05/06 01:49:02;;;;;;;12.20;6.00;;;;;;;;;;107068;1274;24220;-81
2023/05/06 01:51:31;;;;;;;13.60;6.10;;;;;;;;;;107156;1274;24067;-75
2023/05/06 01:53:58;;;;;;;11.00;5.80;;;;;;;;;;107088;1257;22516;-82
2023/05/06 01:56:25;;;;;;;11.70;6.10;;;;;;;;;;106865;1275;22519;-78
2023/05/06 01:58:52;;;;;;;13.40;6.30;;;;;;;;;;106942;1275;22541;-75
2023/05/06 02:01:19;;;;;;;12.50;6.30;;;;;;;;;;106945;1275;25299;-79
2023/05/06 02:03:46;;;;;;;11.60;6.10;;;;;;;;;;107060;1261;22987;-81
2023/05/06 02:06:13;;;;;;;14.10;6.10;;;;;;;;;;106941;1274;22533;-75
2023/05/06 02:08:40;;;;;;;15.40;6.60;;;;;;;;;;107085;1274;22629;-81
2023/05/06 02:11:08;;;;;;;12.70;6.60;;;;;;;;;;106951;1274;25417;-79
2023/05/06 02:13:35;;;;;;;13.20;6.20;;;;;;;;;;107136;1274;23422;-76
2023/05/06 02:16:02;;;;;;;12.90;6.50;;;;;;;;;;106865;1259;22524;-81
2023/05/06 02:18:32;;;;;;;13.10;6.50;;;;;;;;;;107016;1275;25344;-77
2023/05/06 02:20:59;;;;;;;14.50;6.30;;;;;;;;;;107043;1275;23109;-80
2023/05/06 02:23:26;;;;;;;12.40;6.30;;;;;;;;;;106874;1275;25347;-78
2023/05/06 02:25:53;;;;;;;15.60;6.60;;;;;;;;;;106911;1274;23857;-76
2023/05/06 02:28:20;;;;;;;13.50;7.10;;;;;;;;;;107144;1274;22514;-79
2023/05/06 02:30:49;;;;;;;15.10;7.90;;;;;;;;;;106970;1274;25315;-78
2023/05/06 02:33:15;;;;;;;13.90;6.90;;;;;;;;;;107068;1274;24364;-81
2023/05/06 02:35:43;;;;;;;12.50;7.70;;;;;;;;;;107072;1272;25324;-74
2023/05/06 02:38:10;;;;;;;15.40;6.90;;;;;;;;;;107096;1275;22602;-75
2023/05/06 02:40:46;;;;;;;12.90;7.30;;;;;;;;;;106979;1275;22524;-78
2023/05/06 02:43:12;;;;;;;15.10;6.50;;;;;;;;;;106980;1275;23099;-78
2023/05/06 02:45:39;;;;;;;14.70;7.00;;;;;;;;;;106894;1274;22520;-79
2023/05/06 02:48:08;;;;;;;13.70;7.10;;;;;;;;;;107087;1256;25389;-77
2023/05/06 02:50:36;;;;;;;15.00;7.70;;;;;;;;;;107053;1274;26059;-78
2023/05/06 02:53:03;;;;;;;14.70;7.80;;;;;;;;;;106955;1274;22524;-76
2023/05/06 02:55:30;;;;;;;14.10;7.50;;;;;;;;;;106998;1259;22618;-75
2023/05/06 02:57:57;;;;;;;15.80;8.10;;;;;;;;;;106981;1275;22559;-74
2023/05/06 03:00:24;;;;;;;15.00;7.90;;;;;;;;;;107024;1265;24354;-77
2023/05/06 03:02:51;;;;;;;16.10;7.50;;;;;;;;;;107016;1275;23999;-81
2023/05/06 03:05:18;;;;;;;13.60;7.60;;;;;;;;;;106920;1259;25350;-78
2023/05/06 03:07:44;;;;;;;14.50;7.30;;;;;;;;;;106952;1274;24239;-76
2023/05/06 03:10:14;;;;;;;18.20;7.80;;;;;;;;;;107100;1274;25517;-74
2023/05/06 03:12:43;;;;;;;14.10;7.00;;;;;;;;;;106958;1274;22517;-78
2023/05/06 03:15:10;;;;;;;18.10;8.30;;;;;;;;;;107035;1263;22604;-81
2023/05/06 03:17:37;;;;;;;19.30;7.90;;;;;;;;;;107022;1275;25422;-79
2023/05/06 03:20:07;;;;;;;18.00;8.60;;;;;;;;;;106897;1275;25315;-76
2023/05/06 03:22:34;;;;;;;17.50;8.60;;;;;;;;;;107066;1275;25265;-77
2023/05/06 03:25:02;;;;;;;16.30;8.20;;;;;;;;;;107016;1275;26451;-76
2023/05/06 03:27:29;;;;;;;15.80;8.50;;;;;;;;;;107080;1257;25312;-79
2023/05/06 03:29:59;;;;;;;15.80;8.40;;;;;;;;;;107157;1274;25822;-78
2023/05/06 03:32:25;;;;;;;16.20;8.60;;;;;;;;;;107163;1274;22524;-78
2023/05/06 03:34:53;;;;;;;16.90;9.00;;;;;;;;;;106950;1274;24343;-77
2023/05/06 03:37:20;;;;;;;15.60;8.70;;;;;;;;;;107000;1275;24400;-76
2023/05/06 03:39:51;;;;;;;22.10;8.80;;;;;;;;;;106902;1275;25319;-76
2023/05/06 03:42:28;;;;;;;15.70;9.00;;;;;;;;;;106914;1275;22776;-79
2023/05/06 03:44:55;;;;;;;17.00;9.20;;;;;;;;;;106990;1275;25278;-75
2023/05/06 03:47:23;;;;;;;19.00;8.90;;;;;;;;;;107038;1261;22665;-79
2023/05/06 03:49:50;;;;;;;16.70;8.80;;;;;;;;;;106908;1274;22609;-77
2023/05/06 03:52:17;;;;;;;14.90;8.60;;;;;;;;;;106967;1274;25422;-76
2023/05/06 03:54:44;;;;;;;15.70;8.40;;;;;;;;;;106955;1274;25375;-75
2023/05/06 03:57:11;;;;;;;13.80;7.70;;;;;;;;;;107060;1256;25466;-79
2023/05/06 03:59:38;;;;;;;16.40;8.10;;;;;;;;;;106849;1275;22730;-76
2023/05/06 04:02:05;;;;;;;19.90;9.00;;;;;;;;;;106898;1275;23909;-75
2023/05/06 04:04:33;;;;;;;29.60;9.80;;;;;;;;;;107073;1275;23866;-79
2023/05/06 04:07:00;;;;;;;27.60;9.50;;;;;;;;;;107061;1266;22507;-81
2023/05/06 04:09:27;;;;;;;16.60;8.60;;;;;;;;;;107144;1274;22527;-78
2023/05/06 04:11:55;;;;;;;16.20;8.30;;;;;;;;;;106941;1274;22646;-76
2023/05/06 04:14:21;;;;;;;19.90;8.40;;;;;;;;;;106934;1274;25432;-79
2023/05/06 04:16:49;;;;;;;14.30;7.80;;;;;;;;;;106898;1259;25334;-78
2023/05/06 04:19:16;;;;;;;16.60;8.70;;;;;;;;;;106956;1275;26548;-76
2023/05/06 04:21:46;;;;;;;15.20;7.30;;;;;;;;;;106995;1275;22626;-79
2023/05/06 04:24:14;;;;;;;14.00;7.70;;;;;;;;;;106862;1275;22556;-75
2023/05/06 04:26:41;;;;;;;18.90;7.90;;;;;;;;;;106868;1274;25325;-79
2023/05/06 04:29:09;;;;;;;14.90;8.10;;;;;;;;;;106931;1274;24527;-80
2023/05/06 04:31:58;;;;;;;13.90;7.40;;;;;;;;;;107065;1274;22508;-78
2023/05/06 04:34:26;;;;;;;17.90;8.00;;;;;;;;;;107052;1274;22646;-77
2023/05/06 04:36:54;;;;;;;14.70;8.00;;;;;;;;;;107118;1257;25319;-75
2023/05/06 04:39:28;;;;;;;15.40;7.70;;;;;;;;;;106995;1275;22496;-78
2023/05/06 04:41:56;;;;;;;14.20;7.60;;;;;;;;;;106981;1275;25062;-81
2023/05/06 04:44:28;;;;;;;15.70;8.60;;;;;;;;;;107042;1275;25374;-77
2023/05/06 04:46:57;;;;;;;17.20;8.20;;;;;;;;;;106992;1274;24186;-79
2023/05/06 04:49:25;;;;;;;14.60;7.80;;;;;;;;;;106913;1274;22647;-75
2023/05/06 04:51:52;;;;;;;20.30;8.00;;;;;;;;;;106913;1274;25306;-78
2023/05/06 04:54:19;;;;;;;15.00;7.60;;;;;;;;;;107059;1274;25393;-79
2023/05/06 04:56:46;;;;;;;16.00;7.70;;;;;;;;;;106942;1274;23110;-75
2023/05/06 04:59:14;;;;;;;15.00;7.50;;;;;;;;;;106977;1259;25475;-81
2023/05/06 05:01:41;;;;;;;14.50;8.20;;;;;;;;;;106970;1275;24279;-78
2023/05/06 05:04:10;;;;;;;18.80;8.10;;;;;;;;;;106900;1275;25273;-85
2023/05/06 05:06:37;;;;;;;15.00;8.10;;;;;;;;;;106873;1275;22521;-78
2023/05/06 05:09:04;;;;;;;18.00;8.90;;;;;;;;;;107059;1256;24239;-76
2023/05/06 05:11:31;;;;;;;20.20;9.00;;;;;;;;;;107080;1274;22571;-76
2023/05/06 05:13:58;;;;;;;21.20;9.70;;;;;;;;;;106921;1274;24166;-81
2023/05/06 05:16:26;;;;;;;17.70;8.40;;;;;;;;;;107096;1274;24190;-76
2023/05/06 05:18:53;;;;;;;16.70;7.60;;;;;;;;;;106976;1257;23922;-79
2023/05/06 05:21:22;;;;;;;15.20;7.50;;;;;;;;;;106964;1275;22576;-78
2023/05/06 05:23:49;;;;;;;15.70;7.60;;;;;;;;;;106894;1275;22573;-79
2023/05/06 05:26:15;;;;;;;17.50;8.00;;;;;;;;;;107020;1275;24278;-74
2023/05/06 05:28:43;;;;;;;13.50;7.00;;;;;;;;;;106889;1258;22502;-74
2023/05/06 05:31:10;;;;;;;12.70;7.00;;;;;;;;;;107088;1274;24219;-81
2023/05/06 05:33:36;;;;;;;12.30;6.80;;;;;;;;;;106909;1274;25472;-76
2023/05/06 05:36:05;;;;;;;12.80;6.80;;;;;;;;;;106902;1274;25315;-77
2023/05/06 05:38:32;;;;;;;12.80;7.00;;;;;;;;;;107094;1275;22540;-77
2023/05/06 05:41:00;;;;;;;13.50;7.50;;;;;;;;;;107030;1275;24218;-81
2023/05/06 05:43:30;;;;;;;13.00;7.00;;;;;;;;;;107081;1275;25468;-78
2023/05/06 05:45:58;;;;;;;13.90;6.90;;;;;;;;;;107161;1275;23870;-77
2023/05/06 05:48:24;;;;;;;14.60;7.30;;;;;;;;;;107017;1251;22558;-78
2023/05/06 05:50:51;;;;;;;16.50;7.70;;;;;;;;;;107045;1272;22660;-77
2023/05/06 05:53:19;;;;;;;13.90;7.00;;;;;;;;;;107086;1274;23415;-78
2023/05/06 05:55:46;;;;;;;13.60;6.80;;;;;;;;;;107048;1274;25268;-75
2023/05/06 05:58:14;;;;;;;13.50;6.80;;;;;;;;;;106890;1256;23625;-74
2023/05/06 06:00:43;;;;;;;12.10;6.30;;;;;;;;;;106971;1275;22595;-79
2023/05/06 06:03:11;;;;;;;13.40;7.00;;;;;;;;;;106984;1275;24193;-78
2023/05/06 06:05:38;;;;;;;14.40;6.70;;;;;;;;;;107004;1275;22620;-74
2023/05/06 06:08:05;;;;;;;15.80;7.00;;;;;;;;;;107004;1275;25252;-74
2023/05/06 06:10:37;;;;;;;16.70;7.20;;;;;;;;;;107148;1257;24240;-80
2023/05/06 06:13:09;;;;;;;18.70;7.40;;;;;;;;;;106938;1274;22537;-81
2023/05/06 06:15:35;;;;;;;13.60;6.90;;;;;;;;;;107089;1274;22543;-74
2023/05/06 06:18:02;;;;;;;14.40;6.60;;;;;;;;;;106893;1274;25302;-76
2023/05/06 06:20:30;;;;;;;13.80;6.70;;;;;;;;;;106898;1258;22508;-78
2023/05/06 06:22:58;;;;;;;12.90;7.10;;;;;;;;;;107069;1275;22528;-78
2023/05/06 06:25:25;;;;;;;15.60;7.00;;;;;;;;;;106891;1275;22766;-76
2023/05/06 06:27:56;;;;;;;13.80;7.20;;;;;;;;;;107043;1275;24393;-77
2023/05/06 06:30:23;;;;;;;13.20;7.50;;;;;;;;;;107105;1264;25421;-77
2023/05/06 06:32:51;;;;;;;13.40;7.20;;;;;;;;;;107149;1274;22531;-78
2023/05/06 06:35:22;;;;;;;13.40;6.80;;;;;;;;;;107030;1274;22533;-77
2023/05/06 06:37:49;;;;;;;12.20;7.70;;;;;;;;;;106999;1274;22544;-77
2023/05/06 06:40:16;;;;;;;14.40;7.80;;;;;;;;;;107005;1259;24350;-75
2023/05/06 06:42:43;;;;;;;14.70;7.20;;;;;;;;;;107072;1275;24947;-75
2023/05/06 06:45:40;;;;;;;14.30;7.10;;;;;;;;;;107071;1275;22621;-76
2023/05/06 06:48:07;;;;;;;14.80;7.20;;;;;;;;;;106998;1275;22636;-80
2023/05/06 06:50:34;;;;;;;12.50;6.60;;;;;;;;;;107047;1274;25362;-77
2023/05/06 06:53:03;;;;;;;14.30;6.80;;;;;;;;;;106850;1274;23118;-76
2023/05/06 06:55:30;;;;;;;11.90;6.50;;;;;;;;;;106805;1273;22605;-75
2023/05/06 06:57:57;;;;;;;12.30;7.00;;;;;;;;;;106906;1274;22602;-80
2023/05/06 07:00:24;;;;;;;17.30;7.20;;;;;;;;;;107041;1266;22528;-80
2023/05/06 07:02:51;;;;;;;14.50;7.40;;;;;;;;;;106847;1275;22751;-78
2023/05/06 07:05:18;;;;;;;14.00;7.70;;;;;;;;;;106975;1275;25302;-74
2023/05/06 07:07:44;;;;;;;13.50;8.00;;;;;;;;;;106967;1275;24182;-80
2023/05/06 07:10:11;;;;;;;15.00;8.10;;;;;;;;;;106884;1257;22521;-74
2023/05/06 07:12:39;;;;;;;17.20;8.40;;;;;;;;;;107035;1274;24200;-74
2023/05/06 07:15:06;;;;;;;14.90;7.20;;;;;;;;;;107168;1274;25312;-78
2023/05/06 07:17:32;;;;;;;17.30;8.50;;;;;;;;;;107103;1275;22588;-78
2023/05/06 07:19:59;;;;;;;17.60;8.90;;;;;;;;;;107073;1260;22511;-81
2023/05/06 07:22:27;;;;;;;32.70;15.20;;;;;;;;;;106896;1273;25343;-73
2023/05/06 07:24:54;;;;;;;35.50;16.90;;;;;;;;;;107068;1275;22544;-79
2023/05/06 07:27:22;;;;;;;37.70;19.60;;;;;;;;;;106875;1255;22528;-80
2023/05/06 07:29:50;;;;;;;36.60;20.20;;;;;;;;;;106876;1275;22531;-78
2023/05/06 07:32:19;;;;;;;20.40;10.10;;;;;;;;;;107096;1267;22489;-74
2023/05/06 07:34:46;;;;;;;14.90;7.70;;;;;;;;;;107131;1274;22536;-79
2023/05/06 07:37:13;;;;;;;15.40;7.10;;;;;;;;;;107083;1274;22621;-74
2023/05/06 07:39:43;;;;;;;15.00;7.50;;;;;;;;;;107146;1274;22521;-76
2023/05/06 07:42:11;;;;;;;17.50;7.90;;;;;;;;;;106959;1267;26416;-87
2023/05/06 07:44:38;;;;;;;16.60;8.00;;;;;;;;;;106967;1275;24560;-74
2023/05/06 07:47:05;;;;;;;17.40;8.00;;;;;;;;;;106848;1254;22524;-77
2023/05/06 07:49:33;;;;;;;17.70;7.50;;;;;;;;;;106954;1274;24257;-74
2023/05/06 07:52:02;;;;;;;15.30;8.10;;;;;;;;;;106963;1272;22528;-78
2023/05/06 07:54:32;;;;;;;15.80;7.20;;;;;;;;;;107025;1275;24340;-77
2023/05/06 07:57:07;;;;;;;16.60;7.70;;;;;;;;;;106988;1275;22508;-79
2023/05/06 07:59:33;;;;;;;16.00;8.40;;;;;;;;;;106921;1273;22532;-80
2023/05/06 08:02:01;;;;;;;16.00;7.90;;;;;;;;;;106919;1257;22629;-77
2023/05/06 08:04:30;;;;;;;12.00;6.20;;;;;;;;;;106909;1276;22534;-76
2023/05/06 08:06:57;;;;;;;12.00;7.10;;;;;;;;;;106860;1276;23463;-79
2023/05/06 08:09:25;;;;;;;12.50;7.00;;;;;;;;;;106856;1276;25316;-77
2023/05/06 08:11:52;;;;;;;15.90;6.80;;;;;;;;;;106931;1257;22521;-79
2023/05/06 08:14:19;;;;;;;16.10;7.40;;;;;;;;;;107305;1260;25573;-76
2023/05/06 08:16:46;;;;;;;12.90;6.80;;;;;;;;;;107007;1265;24255;-75
2023/05/06 08:19:13;;;;;;;12.80;6.80;;;;;;;;;;106904;1260;25562;-78
2023/05/06 08:21:40;;;;;;;14.00;6.40;;;;;;;;;;107028;1256;22483;-79
2023/05/06 08:24:07;;;;;;;15.00;6.60;;;;;;;;;;106917;1275;22521;-78
2023/05/06 08:26:35;;;;;;;12.30;6.60;;;;;;;;;;107043;1270;25275;-77
2023/05/06 08:29:02;;;;;;;12.20;6.20;;;;;;;;;;106978;1267;25344;-75
2023/05/06 08:31:29;;;;;;;13.00;6.80;;;;;;;;;;107024;1269;24247;-74
2023/05/06 08:33:57;;;;;;;14.20;7.30;;;;;;;;;;107039;1254;22550;-76
2023/05/06 08:36:24;;;;;;;15.40;7.60;;;;;;;;;;107055;1275;25531;-74
2023/05/06 08:38:51;;;;;;;13.10;7.30;;;;;;;;;;106781;1267;25590;-73
2023/05/06 08:41:20;;;;;;;12.50;6.90;;;;;;;;;;106889;1274;22523;-74
2023/05/06 08:43:49;;;;;;;12.60;6.90;;;;;;;;;;107086;1274;24270;-75
2023/05/06 08:46:21;;;;;;;10.90;6.80;;;;;;;;;;107063;1275;24243;-78
2023/05/06 08:48:48;;;;;;;11.50;7.00;;;;;;;;;;107010;1274;25350;-75
2023/05/06 08:51:15;;;;;;;13.80;7.30;;;;;;;;;;107159;1267;22512;-80
2023/05/06 08:53:47;;;;;;;15.60;7.90;;;;;;;;;;106773;1260;22521;-78
2023/05/06 08:56:15;;;;;;;13.40;7.50;;;;;;;;;;106820;1276;22520;-78
2023/05/06 08:58:53;;;;;;;11.70;7.50;;;;;;;;;;106958;1276;23896;-75
2023/05/06 09:01:19;;;;;;;13.70;7.90;;;;;;;;;;107102;1270;25451;-73
2023/05/06 09:03:46;;;;;;;16.10;7.50;;;;;;;;;;106886;1257;22760;-76
2023/05/06 09:06:13;;;;;;;13.80;7.30;;;;;;;;;;107166;1270;22554;-75
2023/05/06 09:08:49;;;;;;;13.60;8.00;;;;;;;;;;107057;1274;25231;-77
2023/05/06 09:11:51;;;;;;;15.60;8.60;;;;;;;;;;106839;1270;22486;-75
2023/05/06 09:14:19;;;;;;;13.50;7.70;;;;;;;;;;106924;1257;24298;-75
2023/05/06 09:16:48;;;;;;;16.40;8.60;;;;;;;;;;106906;1276;22655;-73
2023/05/06 09:19:16;;;;;;;14.20;8.20;;;;;;;;;;106952;1270;24695;-73
2023/05/06 09:21:47;;;;;;;13.80;8.50;;;;;;;;;;106844;1276;22528;-81
2023/05/06 09:24:18;;;;;;;13.60;8.00;;;;;;;;;;107023;1257;25457;-74
2023/05/06 09:26:45;;;;;;;13.70;7.90;;;;;;;;;;107104;1271;24196;-78
2023/05/06 09:29:14;;;;;;;14.20;8.10;;;;;;;;;;107119;1273;22520;-78
2023/05/06 09:31:48;;;;;;;14.20;8.30;;;;;;;;;;107142;1263;22550;-78
2023/05/06 09:34:16;;;;;;;12.70;8.20;;;;;;;;;;107074;1275;22828;-78
2023/05/06 09:36:44;;;;;;;15.10;8.90;;;;;;;;;;107090;1275;22489;-78
2023/05/06 09:39:10;;;;;;;13.60;8.70;;;;;;;;;;107030;1270;22753;-80
2023/05/06 09:41:38;;;;;;;13.20;9.00;;;;;;;;;;107086;1275;24220;-77
2023/05/06 09:44:05;;;;;;;14.40;8.40;;;;;;;;;;106875;1254;22753;-79
2023/05/06 09:46:32;;;;;;;14.10;8.50;;;;;;;;;;106836;1273;22559;-74
2023/05/06 09:48:59;;;;;;;14.60;9.00;;;;;;;;;;106888;1267;24196;-75
2023/05/06 09:51:27;;;;;;;12.20;8.70;;;;;;;;;;106993;1270;22527;-77
2023/05/06 09:53:58;;;;;;;14.90;9.10;;;;;;;;;;107018;1267;22549;-74
2023/05/06 09:56:25;;;;;;;13.30;9.40;;;;;;;;;;106866;1257;22527;-75
2023/05/06 09:58:54;;;;;;;16.30;10.20;;;;;;;;;;106855;1275;24266;-74
2023/05/06 10:01:21;;;;;;;15.90;11.70;;;;;;;;;;106862;1276;24123;-74
2023/05/06 10:03:54;;;;;;;18.40;11.70;;;;;;;;;;106730;1275;24371;-77
2023/05/06 10:06:25;;;;;;;19.50;12.40;;;;;;;;;;107062;1257;25340;-79
2023/05/06 10:09:01;;;;;;;18.70;11.30;;;;;;;;;;107120;1274;25328;-78
2023/05/06 10:11:30;;;;;;;17.20;10.70;;;;;;;;;;107117;1274;23860;-75
2023/05/06 10:14:06;;;;;;;16.00;11.10;;;;;;;;;;107210;1274;24211;-76
2023/05/06 10:16:35;;;;;;;17.90;12.00;;;;;;;;;;106945;1253;24323;-78
2023/05/06 10:19:04;;;;;;;18.90;11.50;;;;;;;;;;110433;1274;22898;-74
2023/05/06 10:21:33;;;;;;;20.10;12.40;;;;;;;;;;110549;1275;22185;-74
2023/05/06 10:24:20;;;;;;;19.10;12.90;;;;;;;;;;110450;1271;22249;-74
2023/05/06 10:26:48;;;;;;;17.50;12.70;;;;;;;;;;110698;1251;22146;-73
2023/05/06 10:29:16;;;;;;;18.10;12.70;;;;;;;;;;110659;1274;22174;-73
2023/05/06 10:31:53;;;;;;;18.40;13.00;;;;;;;;;;110591;1274;23016;-75
2023/05/06 10:34:21;;;;;;;17.60;12.30;;;;;;;;;;110619;1274;22287;-74
2023/05/06 10:36:56;;;;;;;17.30;12.30;;;;;;;;;;110592;1253;22158;-73
2023/05/06 10:39:23;;;;;;;17.10;12.20;;;;;;;;;;110490;1276;22087;-73
2023/05/06 10:41:50;;;;;;;18.10;13.20;;;;;;;;;;110495;1276;22103;-74
2023/05/06 10:44:17;;;;;;;18.60;12.40;;;;;;;;;;110396;1276;22183;-74
2023/05/06 10:46:58;;;;;;;17.80;13.50;;;;;;;;;;110795;1253;22426;-74
2023/05/06 10:49:25;;;;;;;19.90;14.00;;;;;;;;;;110576;1275;22277;-74
2023/05/06 10:52:15;;;;;;;17.90;13.10;;;;;;;;;;110596;1275;23382;-74
2023/05/06 10:54:46;;;;;;;18.10;12.60;;;;;;;;;;110654;1275;22109;-75
2023/05/06 10:57:12;;;;;;;17.60;13.40;;;;;;;;;;110476;1258;22185;-74
2023/05/06 10:59:44;;;;;;;20.20;13.50;;;;;;;;;;110481;1276;22936;-74
2023/05/06 11:02:11;;;;;;;17.40;13.60;;;;;;;;;;110488;1276;22110;-77
2023/05/06 11:04:38;;;;;;;17.10;12.60;;;;;;;;;;110438;1276;22806;-75
2023/05/06 11:07:11;;;;;;;17.20;12.80;;;;;;;;;;110843;1254;22138;-75
2023/05/06 11:09:57;;;;;;;15.80;11.50;;;;;;;;;;110579;1275;22581;-75
2023/05/06 11:12:43;;;;;;;16.20;11.40;;;;;;;;;;110475;1275;22139;-76
2023/05/06 11:15:26;;;;;;;17.30;11.60;;;;;;;;;;110632;1275;22822;-74
2023/05/06 11:17:54;;;;;;;17.10;12.70;;;;;;;;;;110697;1253;22117;-74
2023/05/06 11:20:25;;;;;;;14.90;11.30;;;;;;;;;;110505;1276;22574;-74
2023/05/06 11:22:52;;;;;;;17.60;11.70;;;;;;;;;;110446;1276;22132;-75
2023/05/06 11:25:37;;;;;;;16.60;11.50;;;;;;;;;;110499;1276;22790;-74
2023/05/06 11:28:10;;;;;;;16.40;12.40;;;;;;;;;;110909;1256;22744;-74
2023/05/06 11:30:39;;;;;;;17.60;12.00;;;;;;;;;;110499;1275;22219;-74
2023/05/06 11:33:07;;;;;;;14.90;11.40;;;;;;;;;;110407;1275;22153;-74
2023/05/06 11:35:35;;;;;;;17.90;11.40;;;;;;;;;;110581;1275;22363;-74
2023/05/06 11:38:02;;;;;;;17.60;12.30;;;;;;;;;;110440;1254;22019;-74
2023/05/06 11:40:29;;;;;;;16.10;12.00;;;;;;;;;;110486;1276;22128;-74
2023/05/06 11:43:08;;;;;;;18.30;12.40;;;;;;;;;;110442;1276;22091;-74
2023/05/06 11:45:47;;;;;;;17.20;12.60;;;;;;;;;;110459;1277;22971;-74
2023/05/06 11:48:15;;;;;;;16.50;11.70;;;;;;;;;;110648;1256;22100;-74
2023/05/06 11:50:46;;;;;;;18.50;12.40;;;;;;;;;;110489;1276;22884;-74
2023/05/06 11:53:15;;;;;;;14.90;11.30;;;;;;;;;;110462;1276;23160;-74
2023/05/06 11:55:43;;;;;;;19.70;11.90;;;;;;;;;;108568;1276;2717774;-74
2023/05/06 11:58:17;;;;;;;17.40;11.70;;;;;;;;;;110614;1256;22398;-74
2023/05/06 12:00:45;;;;;;;18.70;11.70;;;;;;;;;;110386;1277;22810;-74
2023/05/06 12:03:15;;;;;;;17.80;11.80;;;;;;;;;;110452;1277;22112;-75
2023/05/06 12:05:42;;;;;;;17.90;12.10;;;;;;;;;;110414;1277;22193;-74
2023/05/06 12:08:10;;;;;;;16.90;12.40;;;;;;;;;;110592;1253;22141;-74
2023/05/06 12:10:38;;;;;;;18.50;11.70;;;;;;;;;;110586;1276;22977;-74
2023/05/06 12:13:05;;;;;;;16.50;12.00;;;;;;;;;;110480;1276;22114;-74
2023/05/06 12:15:34;;;;;;;15.90;11.10;;;;;;;;;;110668;1276;22950;-74
2023/05/06 12:18:01;;;;;;;15.50;11.40;;;;;;;;;;110567;1254;22869;-74
2023/05/06 12:20:32;;;;;;;16.60;12.30;;;;;;;;;;110327;1277;22095;-74
2023/05/06 12:23:11;;;;;;;22.00;12.80;;;;;;;;;;110450;1277;22100;-74
2023/05/06 12:25:39;;;;;;;18.40;11.90;;;;;;;;;;110448;1277;22817;-74
2023/05/06 12:28:16;;;;;;;17.90;13.40;;;;;;;;;;110408;1259;22179;-74
2023/05/06 12:30:43;;;;;;;18.20;13.00;;;;;;;;;;110444;1276;22383;-74
2023/05/06 12:33:13;;;;;;;18.20;10.90;;;;;;;;;;110466;1270;22205;-75
2023/05/06 12:35:40;;;;;;;20.40;13.20;;;;;;;;;;110596;1276;22317;-76
2023/05/06 12:38:08;;;;;;;20.20;14.60;;;;;;;;;;110432;1259;22181;-76
2023/05/06 12:40:35;;;;;;;19.00;13.10;;;;;;;;;;110333;1277;22907;-75
2023/05/06 12:43:02;;;;;;;20.10;13.00;;;;;;;;;;110304;1277;22172;-77
2023/05/06 12:45:29;;;;;;;21.60;13.80;;;;;;;;;;110385;1277;22900;-75
2023/05/06 12:47:57;;;;;;;19.90;14.40;;;;;;;;;;110415;1254;22779;-76
2023/05/06 12:50:31;;;;;;;20.50;13.20;;;;;;;;;;110459;1269;22570;-75
2023/05/06 12:52:58;;;;;;;23.90;13.50;;;;;;;;;;110496;1276;22101;-74
2023/05/06 12:55:29;;;;;;;20.80;13.60;;;;;;;;;;110504;1276;22135;-75
2023/05/06 12:57:57;;;;;;;22.10;13.10;;;;;;;;;;110381;1254;22216;-74
2023/05/06 13:00:23;;;;;;;25.20;17.10;;;;;;;;;;110178;1277;22132;-74
2023/05/06 13:02:50;;;;;;;32.30;23.50;;;;;;;;;;110218;1277;22939;-75
2023/05/06 13:05:17;;;;;;;73.20;45.10;;;;;;;;;;110166;1277;22130;-75
2023/05/06 13:07:47;;;;;;;404.00;171.40;;;;;;;;;;110220;1257;22116;-75
2023/05/06 13:10:14;;;;;;;163.60;65.00;;;;;;;;;;110753;1254;22205;-75
2023/05/06 13:12:44;;;;;;;83.90;40.10;;;;;;;;;;110452;1276;22146;-75
2023/05/06 13:15:11;;;;;;;38.60;23.10;;;;;;;;;;110489;1276;22134;-75
2023/05/06 13:17:37;;;;;;;26.00;16.70;;;;;;;;;;110468;1276;21989;-75
2023/05/06 13:20:06;;;;;;;23.50;16.10;;;;;;;;;;110595;1259;22129;-75
2023/05/06 13:22:33;;;;;;;22.40;14.40;;;;;;;;;;110400;1271;22805;-75
2023/05/06 13:25:00;;;;;;;21.90;13.20;;;;;;;;;;110368;1277;22797;-75
2023/05/06 13:27:29;;;;;;;20.10;13.90;;;;;;;;;;110308;1277;22166;-75
2023/05/06 13:29:56;;;;;;;22.80;14.70;;;;;;;;;;110454;1260;22135;-76
2023/05/06 13:32:23;;;;;;;24.00;15.40;;;;;;;;;;110400;1276;22860;-76
2023/05/06 13:34:50;;;;;;;22.10;14.20;;;;;;;;;;110427;1276;22775;-77
2023/05/06 13:37:17;;;;;;;19.70;12.50;;;;;;;;;;110286;1277;22250;-77
2023/05/06 13:39:44;;;;;;;22.60;14.20;;;;;;;;;;110138;1259;22192;-76
2023/05/06 13:42:12;;;;;;;25.60;15.30;;;;;;;;;;110304;1267;22085;-83
2023/05/06 13:44:42;;;;;;;21.30;14.60;;;;;;;;;;110385;1278;23090;-76
2023/05/06 13:47:12;;;;;;;18.50;13.30;;;;;;;;;;110406;1278;22828;-76
2023/05/06 13:49:39;;;;;;;20.90;13.30;;;;;;;;;;110359;1256;22831;-76
2023/05/06 13:52:06;;;;;;;19.30;13.10;;;;;;;;;;110421;1277;23022;-76
2023/05/06 13:54:33;;;;;;;17.10;10.20;;;;;;;;;;110484;1272;22838;-76
2023/05/06 13:57:00;;;;;;;17.70;12.40;;;;;;;;;;110450;1277;22311;-76
2023/05/06 13:59:30;;;;;;;20.60;14.60;;;;;;;;;;110392;1260;22827;-77
2023/05/06 14:01:57;;;;;;;20.80;14.90;;;;;;;;;;110304;1275;22793;-76
2023/05/06 14:04:24;;;;;;;23.50;14.60;;;;;;;;;;110418;1278;22194;-75
2023/05/06 14:06:54;;;;;;;19.50;14.10;;;;;;;;;;110312;1278;21958;-75
2023/05/06 14:09:21;;;;;;;19.60;12.30;;;;;;;;;;110322;1253;22628;-75
2023/05/06 14:11:53;;;;;;;19.50;14.50;;;;;;;;;;110465;1277;22122;-74
2023/05/06 14:14:20;;;;;;;25.00;17.50;;;;;;;;;;110458;1277;22281;-75
2023/05/06 14:16:47;;;;;;;24.50;17.60;;;;;;;;;;110356;1277;22097;-75
2023/05/06 14:19:13;;;;;;;22.40;16.20;;;;;;;;;;110355;1277;22424;-75
2023/05/06 14:21:40;;;;;;;22.20;15.30;;;;;;;;;;110159;1259;22777;-75
2023/05/06 14:24:07;;;;;;;23.80;16.40;;;;;;;;;;110378;1278;22861;-74